createdAt,value
2023-05-26T00:04:06.854Z,7.90
2023-05-26T00:06:35.137Z,7.85
2023-05-26T00:09:02.053Z,8.57
2023-05-26T00:11:29.046Z,8.60
2023-05-26T00:13:55.871Z,8.13
2023-05-26T00:16:23.173Z,8.45
2023-05-26T00:18:50.392Z,8.90
2023-05-26T00:21:17.562Z,8.93
2023-05-26T00:23:46.295Z,8.38
2023-05-26T00:26:14.477Z,8.68
2023-05-26T00:28:41.373Z,8.77
2023-05-26T00:31:08.461Z,8.73
2023-05-26T00:33:35.303Z,8.55
2023-05-26T00:36:02.124Z,9.55
2023-05-26T00:38:28.949Z,8.80
2023-05-26T00:40:57.385Z,8.60
2023-05-26T00:43:24.456Z,9.20
2023-05-26T00:45:51.638Z,8.73
2023-05-26T00:48:18.771Z,9.05
2023-05-26T00:50:45.981Z,8.65
2023-05-26T00:53:12.892Z,9.63
2023-05-26T00:55:39.844Z,8.70
2023-05-26T00:58:08.178Z,8.45
2023-05-26T01:00:35.278Z,8.95
2023-05-26T01:03:04.901Z,9.45
2023-05-26T01:05:32.168Z,8.65
2023-05-26T01:07:59.175Z,8.32
2023-05-26T01:10:26.024Z,8.10
2023-05-26T01:12:59.365Z,8.35
2023-05-26T01:15:33.701Z,7.70
2023-05-26T01:18:06.442Z,7.50
2023-05-26T01:20:39.151Z,6.70
2023-05-26T01:23:29.307Z,6.72
2023-05-26T01:26:13.579Z,6.93
2023-05-26T01:28:44.168Z,6.82
2023-05-26T01:31:11.206Z,7.15
2023-05-26T01:33:38.018Z,6.90
2023-05-26T01:38:48.820Z,8.07
2023-05-26T01:41:24.113Z,7.70
2023-05-26T01:44:00.505Z,7.55
2023-05-26T01:46:31.360Z,7.70
2023-05-26T01:49:03.084Z,7.30
2023-05-26T01:51:34.600Z,7.07
2023-05-26T01:54:03.099Z,7.13
2023-05-26T01:56:32.718Z,6.85
2023-05-26T01:59:02.047Z,7.10
2023-05-26T02:01:29.750Z,7.03
2023-05-26T02:03:56.865Z,7.43
2023-05-26T02:06:24.057Z,6.63
2023-05-26T02:08:50.930Z,7.25
2023-05-26T02:11:17.805Z,6.60
2023-05-26T02:13:45.056Z,6.32
2023-05-26T02:16:13.740Z,6.43
2023-05-26T02:18:40.779Z,6.88
2023-05-26T02:21:07.751Z,6.95
2023-05-26T02:23:34.717Z,7.85
2023-05-26T02:26:01.984Z,6.97
2023-05-26T02:28:28.851Z,7.40
2023-05-26T02:30:56.024Z,7.18
2023-05-26T02:33:24.259Z,7.38
2023-05-26T02:35:51.080Z,7.13
2023-05-26T02:38:17.886Z,7.28
2023-05-26T02:40:44.698Z,7.25
2023-05-26T02:43:11.506Z,6.80
2023-05-26T02:45:38.350Z,7.38
2023-05-26T02:48:05.384Z,6.90
2023-05-26T02:50:33.677Z,7.25
2023-05-26T02:53:00.750Z,7.05
2023-05-26T02:55:27.538Z,7.70
2023-05-26T02:57:54.606Z,7.18
2023-05-26T03:00:21.643Z,7.28
2023-05-26T03:02:48.705Z,7.00
2023-05-26T03:05:15.691Z,6.75
2023-05-26T03:07:43.902Z,7.13
2023-05-26T03:10:11.024Z,7.35
2023-05-26T03:12:37.827Z,7.57
2023-05-26T03:15:05.541Z,7.45
2023-05-26T03:17:32.396Z,7.60
2023-05-26T03:19:59.223Z,8.13
2023-05-26T03:22:41.435Z,7.63
2023-05-26T03:25:14.266Z,7.90
2023-05-26T03:27:41.171Z,7.65
2023-05-26T03:30:08.971Z,7.85
2023-05-26T03:32:35.999Z,7.88
2023-05-26T03:35:03.063Z,7.72
2023-05-26T03:37:30.015Z,7.63
2023-05-26T03:39:57.028Z,8.35
2023-05-26T03:42:25.358Z,7.85
2023-05-26T03:44:52.259Z,8.18
2023-05-26T03:47:19.297Z,7.88
2023-05-26T03:49:46.296Z,7.13
2023-05-26T03:52:13.345Z,7.38
2023-05-26T03:54:40.352Z,7.32
2023-05-26T03:57:07.204Z,7.10
2023-05-26T03:59:35.376Z,7.60
2023-05-26T04:02:02.536Z,7.30
2023-05-26T04:04:29.654Z,8.55
2023-05-26T04:06:57.142Z,6.78
2023-05-26T04:09:24.300Z,7.18
2023-05-26T04:11:51.353Z,7.20
2023-05-26T04:14:18.252Z,7.18
2023-05-26T04:16:46.631Z,7.75
2023-05-26T04:19:13.640Z,6.90
2023-05-26T04:21:40.616Z,7.28
2023-05-26T04:24:08.020Z,7.18
2023-05-26T04:26:34.932Z,7.45
2023-05-26T04:29:02.158Z,7.63
2023-05-26T04:31:29.071Z,7.38
2023-05-26T04:33:57.716Z,7.47
2023-05-26T04:36:24.743Z,7.30
2023-05-26T04:38:52.463Z,7.60
2023-05-26T04:41:19.584Z,7.70
2023-05-26T04:43:46.621Z,8.63
2023-05-26T04:46:13.770Z,7.60
2023-05-26T04:48:40.866Z,7.40
2023-05-26T04:51:09.300Z,7.40
2023-05-26T04:53:36.144Z,7.30
2023-05-26T04:56:04.961Z,7.57
2023-05-26T04:58:32.229Z,7.80
2023-05-26T05:00:59.081Z,7.50
2023-05-26T05:03:26.242Z,7.80
2023-05-26T05:05:53.406Z,6.40
2023-05-26T05:08:23.827Z,6.85
2023-05-26T05:10:52.574Z,6.95
2023-05-26T05:13:21.169Z,7.15
2023-05-26T05:15:48.563Z,6.85
2023-05-26T05:18:15.622Z,7.40
2023-05-26T05:20:42.534Z,7.20
2023-05-26T05:23:09.385Z,6.95
2023-05-26T05:25:37.648Z,6.63
2023-05-26T05:28:04.478Z,6.90
2023-05-26T05:30:31.318Z,6.80
2023-05-26T05:32:58.440Z,6.82
2023-05-26T05:35:25.469Z,7.05
2023-05-26T05:37:56.116Z,7.82
2023-05-26T05:40:22.959Z,7.63
2023-05-26T05:42:51.551Z,7.03
2023-05-26T05:45:18.722Z,7.18
2023-05-26T05:47:45.652Z,7.53
2023-05-26T05:50:13.450Z,7.25
2023-05-26T05:52:42.078Z,7.97
2023-05-26T05:55:09.896Z,8.18
2023-05-26T05:57:36.975Z,7.35
2023-05-26T06:00:06.857Z,7.85
2023-05-26T06:02:34.022Z,8.82
2023-05-26T06:05:03.499Z,8.40
2023-05-26T06:10:11.691Z,8.82
2023-05-26T06:12:38.728Z,7.82
2023-05-26T06:15:08.764Z,7.75
2023-05-26T06:17:35.920Z,7.60
2023-05-26T06:20:03.303Z,8.23
2023-05-26T06:22:30.566Z,8.93
2023-05-26T06:24:58.298Z,8.52
2023-05-26T06:27:25.198Z,9.15
2023-05-26T06:29:52.232Z,8.63
2023-05-26T06:32:22.971Z,8.88
2023-05-26T06:34:50.009Z,8.35
2023-05-26T06:37:17.293Z,8.38
2023-05-26T06:39:45.473Z,8.77
2023-05-26T06:42:25.007Z,8.63
2023-05-26T06:44:53.629Z,8.85
2023-05-26T06:47:22.576Z,9.13
2023-05-26T06:49:49.702Z,8.73
2023-05-26T06:52:17.056Z,8.18
2023-05-26T06:54:44.092Z,8.60
2023-05-26T06:57:10.991Z,9.20
2023-05-26T06:59:38.000Z,9.23
2023-05-26T07:02:05.629Z,8.80
2023-05-26T07:04:34.190Z,9.32
2023-05-26T07:07:01.327Z,9.23
2023-05-26T07:09:28.212Z,9.82
2023-05-26T07:11:55.127Z,9.70
2023-05-26T07:14:22.143Z,8.73
2023-05-26T07:16:49.189Z,9.25
2023-05-26T07:19:16.184Z,9.27
2023-05-26T07:21:45.257Z,9.85
2023-05-26T07:24:12.200Z,9.63
2023-05-26T07:26:39.252Z,9.90
2023-05-26T07:29:06.249Z,9.75
2023-05-26T07:31:33.487Z,9.98
2023-05-26T07:34:00.466Z,10.02
2023-05-26T07:36:29.872Z,9.63
2023-05-26T07:38:58.487Z,10.82
2023-05-26T07:46:47.600Z,9.48
2023-05-26T08:03:15.497Z,9.20
2023-05-26T08:05:42.593Z,8.23
2023-05-26T08:08:09.476Z,9.02
2023-05-26T08:10:36.991Z,9.82
2023-05-26T08:13:05.280Z,9.80
2023-05-26T08:15:33.500Z,9.55
2023-05-26T08:18:00.588Z,8.88
2023-05-26T08:20:27.635Z,9.27
2023-05-26T08:22:57.358Z,9.40
2023-05-26T08:25:24.361Z,10.00
2023-05-26T08:27:51.414Z,9.18
2023-05-26T08:30:20.097Z,8.73
2023-05-26T08:32:48.541Z,8.05
2023-05-26T08:35:15.582Z,9.15
2023-05-26T08:37:42.515Z,8.82
2023-05-26T08:40:10.644Z,9.77
2023-05-26T08:42:42.709Z,9.48
2023-05-26T08:45:11.377Z,8.68
2023-05-26T08:47:42.949Z,8.68
2023-05-26T08:50:11.714Z,9.20
2023-05-26T08:52:39.923Z,8.70
2023-05-26T08:55:12.034Z,9.77
2023-05-26T08:57:40.607Z,8.63
2023-05-26T09:00:08.719Z,8.18
2023-05-26T09:02:35.645Z,9.55
2023-05-26T09:05:04.536Z,9.38
2023-05-26T09:07:34.274Z,9.02
2023-05-26T09:10:24.818Z,9.65
2023-05-26T09:13:02.480Z,10.20
2023-05-26T09:15:29.534Z,9.73
2023-05-26T09:18:03.082Z,8.70
2023-05-26T09:22:58.538Z,7.93
2023-05-26T09:25:25.705Z,8.15
2023-05-26T09:27:52.678Z,7.88
2023-05-26T09:30:19.700Z,8.10
2023-05-26T09:32:46.935Z,8.70
2023-05-26T09:35:13.824Z,7.78
2023-05-26T09:37:45.461Z,7.75
2023-05-26T09:40:13.802Z,7.38
2023-05-26T09:42:48.338Z,6.68
2023-05-26T09:45:16.593Z,7.60
2023-05-26T09:47:43.593Z,7.28
2023-05-26T09:50:11.562Z,6.93
2023-05-26T09:52:39.440Z,7.53
2023-05-26T10:00:58.278Z,6.45
2023-05-26T10:03:26.132Z,6.35
2023-05-26T10:08:36.841Z,6.97
2023-05-26T10:11:05.244Z,6.30
2023-05-26T10:13:33.091Z,6.80
2023-05-26T10:16:00.448Z,6.88
2023-05-26T10:18:27.552Z,6.93
2023-05-26T10:20:56.292Z,7.63
2023-05-26T10:23:29.431Z,6.22
2023-05-26T10:26:03.068Z,6.90
2023-05-26T10:28:38.734Z,18.33
2023-05-26T10:31:05.802Z,6.35
2023-05-26T10:33:39.816Z,7.72
2023-05-26T10:36:09.406Z,6.80
2023-05-26T10:38:44.710Z,5.95
2023-05-26T10:41:12.422Z,5.80
2023-05-26T10:43:40.975Z,6.07
2023-05-26T10:46:08.194Z,5.40
2023-05-26T10:48:35.907Z,5.28
2023-05-26T10:51:11.112Z,5.25
2023-05-26T10:53:43.264Z,5.80
2023-05-26T10:56:11.552Z,5.13
2023-05-26T10:58:42.447Z,5.45
2023-05-26T11:01:13.685Z,5.55
2023-05-26T11:03:45.535Z,5.57
2023-05-26T11:06:15.608Z,5.32
2023-05-26T11:08:46.039Z,5.80
2023-05-26T11:11:26.381Z,5.28
2023-05-26T11:14:03.283Z,5.10
2023-05-26T11:16:34.383Z,5.15
2023-05-26T11:19:04.061Z,5.88
2023-05-26T11:21:31.544Z,5.70
2023-05-26T11:23:59.751Z,6.07
2023-05-26T11:26:28.345Z,5.03
2023-05-26T11:28:56.716Z,5.70
2023-05-26T11:31:25.184Z,6.60
2023-05-26T11:33:52.552Z,6.40
2023-05-26T11:36:20.380Z,6.07
2023-05-26T11:38:48.678Z,5.63
2023-05-26T11:41:16.520Z,6.05
2023-05-26T11:43:47.023Z,6.30
2023-05-26T11:46:17.670Z,5.32
2023-05-26T11:48:45.727Z,6.05
2023-05-26T11:51:13.938Z,6.03
2023-05-26T11:53:42.375Z,6.60
2023-05-26T11:56:11.396Z,6.75
2023-05-26T11:58:42.145Z,6.45
2023-05-26T12:01:11.811Z,6.00
2023-05-26T12:03:42.897Z,5.72
2023-05-26T12:08:59.506Z,6.25
2023-05-26T12:11:35.050Z,5.88
2023-05-26T12:14:04.253Z,5.88
2023-05-26T12:16:34.917Z,5.45
2023-05-26T12:19:40.535Z,6.22
2023-05-26T12:37:51.713Z,5.78
2023-05-26T12:40:19.163Z,4.93
2023-05-26T12:42:46.131Z,5.13
2023-05-26T12:45:13.241Z,5.43
2023-05-26T12:47:41.200Z,5.30
2023-05-26T12:50:14.075Z,5.15
2023-05-26T12:52:43.419Z,5.10
2023-05-26T12:55:11.229Z,5.50
2023-05-26T12:57:39.170Z,5.50
2023-05-26T13:00:08.010Z,5.50
2023-05-26T13:02:36.222Z,4.75
2023-05-26T13:05:03.529Z,4.55
2023-05-26T13:07:33.135Z,4.70
2023-05-26T13:10:01.370Z,4.53
2023-05-26T13:12:29.780Z,4.38
2023-05-26T13:17:46.402Z,4.97
2023-05-26T13:20:14.106Z,5.60
2023-05-26T13:25:45.453Z,4.72
2023-05-26T13:28:16.330Z,4.90
2023-05-26T13:30:44.463Z,4.72
2023-05-26T13:33:13.842Z,5.05
2023-05-26T13:35:43.284Z,5.03
2023-05-26T13:38:12.841Z,4.70
2023-05-26T13:40:47.878Z,5.20
2023-05-26T13:46:00.334Z,5.05
2023-05-26T13:48:29.143Z,5.05
2023-05-26T13:50:58.200Z,5.38
2023-05-26T13:53:32.934Z,5.20
2023-05-26T13:56:10.547Z,4.93
2023-05-26T13:58:59.291Z,4.88
2023-05-26T14:01:37.031Z,4.72
2023-05-26T14:09:30.742Z,4.68
2023-05-26T14:11:58.163Z,5.20
2023-05-26T14:14:27.387Z,4.80
2023-05-26T14:16:55.349Z,5.88
2023-05-26T14:22:08.562Z,4.82
2023-05-26T14:24:43.967Z,5.47
2023-05-26T14:27:11.264Z,5.70
2023-05-26T14:32:20.302Z,5.28
2023-05-26T14:34:48.762Z,4.95
2023-05-26T14:37:57.303Z,4.40
2023-05-26T14:40:25.988Z,4.50
2023-05-26T14:42:53.164Z,4.43
2023-05-26T14:45:20.729Z,4.28
2023-05-26T14:47:48.784Z,4.15
2023-05-26T14:50:15.760Z,4.57
2023-05-26T14:52:43.130Z,4.13
2023-05-26T14:55:10.227Z,4.20
2023-05-26T14:57:46.537Z,4.63
2023-05-26T15:00:15.409Z,4.10
2023-05-26T15:02:43.559Z,4.15
2023-05-26T15:05:12.120Z,4.25
2023-05-26T15:07:40.973Z,4.00
2023-05-26T15:10:08.394Z,4.70
2023-05-26T15:12:39.307Z,4.00
2023-05-26T15:15:09.612Z,4.05
2023-05-26T15:17:36.899Z,3.83
2023-05-26T15:20:12.181Z,4.50
2023-05-26T15:25:27.237Z,4.60
2023-05-26T15:33:53.062Z,4.65
2023-05-26T15:36:23.020Z,4.20
2023-05-26T15:38:50.213Z,4.32
2023-05-26T15:41:19.511Z,5.00
2023-05-26T15:43:46.921Z,4.38
2023-05-26T15:46:25.675Z,4.03
2023-05-26T15:48:54.678Z,3.97
2023-05-26T15:51:23.485Z,4.38
2023-05-26T15:53:50.892Z,3.70
2023-05-26T15:56:20.456Z,4.40
2023-05-26T15:58:47.964Z,4.55
2023-05-26T16:01:17.793Z,3.55
2023-05-26T16:03:45.240Z,4.00
2023-05-26T16:06:13.805Z,4.03
2023-05-26T16:08:41.424Z,4.07
2023-05-26T16:11:08.479Z,4.00
2023-05-26T16:13:35.538Z,3.83
2023-05-26T16:16:05.785Z,3.70
2023-05-26T16:18:33.808Z,3.72
2023-05-26T16:21:01.551Z,3.58
2023-05-26T16:23:30.815Z,3.75
2023-05-26T16:25:59.567Z,3.60
2023-05-26T16:28:27.179Z,3.60
2023-05-26T16:30:55.134Z,3.83
2023-05-26T16:33:26.287Z,3.72
2023-05-26T16:35:54.410Z,3.58
2023-05-26T16:38:25.752Z,4.28
2023-05-26T16:40:54.904Z,3.58
2023-05-26T16:43:36.304Z,3.80
2023-05-26T16:46:11.897Z,3.80
2023-05-26T16:48:40.923Z,4.25
2023-05-26T16:53:49.057Z,4.20
2023-05-26T16:56:21.091Z,4.00
2023-05-26T16:58:48.140Z,3.22
2023-05-26T17:01:16.415Z,4.13
2023-05-26T17:03:43.798Z,3.67
2023-05-26T17:06:11.018Z,4.15
2023-05-26T17:08:38.078Z,3.40
2023-05-26T17:11:05.658Z,3.83
2023-05-26T17:13:34.248Z,3.50
2023-05-26T17:16:01.540Z,3.72
2023-05-26T17:18:28.663Z,3.88
2023-05-26T17:20:56.270Z,3.58
2023-05-26T17:23:23.792Z,4.05
2023-05-26T17:25:51.775Z,3.83
2023-05-26T17:28:18.830Z,3.88
2023-05-26T17:30:48.414Z,3.70
2023-05-26T17:33:16.112Z,3.88
2023-05-26T17:35:44.412Z,3.90
2023-05-26T17:38:12.371Z,3.83
2023-05-26T17:40:40.099Z,4.00
